sensor_id;sensor_type;location;lat;lon;timestamp;temperature;humidity
18291;DHT22;9271;48.590;8.866;2024-03-23T00:55:34;10.20;99.90
18291;DHT22;9271;48.590;8.866;2024-03-23T00:58:01;10.20;99.90
18291;DHT22;9271;48.590;8.866;2024-03-23T01:00:27;10.30;99.90
18291;DHT22;9271;48.590;8.866;2024-03-23T01:02:54;10.30;99.90
18291;DHT22;9271;48.590;8.866;2024-03-23T01:05:19;10.40;99.90
18291;DHT22;9271;48.590;8.866;2024-03-23T01:07:46;10.60;99.90
18291;DHT22;9271;48.590;8.866;2024-03-23T01:10:12;10.80;99.90
18291;DHT22;9271;48.590;8.866;2024-03-23T01:12:40;10.90;99.90
18291;DHT22;9271;48.590;8.866;2024-03-23T01:15:06;10.90;99.90
18291;DHT22;9271;48.590;8.866;2024-03-23T01:17:32;10.80;99.90
18291;DHT22;9271;48.590;8.866;2024-03-23T01:19:58;10.70;99.90
18291;DHT22;9271;48.590;8.866;2024-03-23T01:22:25;10.80;99.90
18291;DHT22;9271;48.590;8.866;2024-03-23T01:24:50;10.80;99.90
18291;DHT22;9271;48.590;8.866;2024-03-23T01:27:17;10.80;99.90
18291;DHT22;9271;48.590;8.866;2024-03-23T01:29:45;10.80;99.90
18291;DHT22;9271;48.590;8.866;2024-03-23T01:32:11;10.70;99.90
18291;DHT22;9271;48.590;8.866;2024-03-23T01:34:37;10.40;99.90
18291;DHT22;9271;48.590;8.866;2024-03-23T01:37:04;10.20;99.90
18291;DHT22;9271;48.590;8.866;2024-03-23T01:39:30;10.40;99.90
18291;DHT22;9271;48.590;8.866;2024-03-23T01:41:56;10.50;99.90
18291;DHT22;9271;48.590;8.866;2024-03-23T01:44:22;10.50;99.90
18291;DHT22;9271;48.590;8.866;2024-03-23T01:46:50;10.50;99.90
18291;DHT22;9271;48.590;8.866;2024-03-23T01:49:17;10.50;99.90
18291;DHT22;9271;48.590;8.866;2024-03-23T01:51:44;10.40;99.90
18291;DHT22;9271;48.590;8.866;2024-03-23T01:54:10;10.70;99.90
18291;DHT22;9271;48.590;8.866;2024-03-23T01:56:37;10.80;99.90
18291;DHT22;9271;48.590;8.866;2024-03-23T01:59:03;10.80;99.90
18291;DHT22;9271;48.590;8.866;2024-03-23T02:01:31;10.70;99.90
18291;DHT22;9271;48.590;8.866;2024-03-23T02:03:58;10.80;99.90
18291;DHT22;9271;48.590;8.866;2024-03-23T02:06:25;10.80;99.90
18291;DHT22;9271;48.590;8.866;2024-03-23T02:08:51;11.00;99.90
18291;DHT22;9271;48.590;8.866;2024-03-23T02:11:17;10.90;99.90
18291;DHT22;9271;48.590;8.866;2024-03-23T02:13:43;10.80;99.90
18291;DHT22;9271;48.590;8.866;2024-03-23T02:16:10;10.90;99.90
18291;DHT22;9271;48.590;8.866;2024-03-23T02:18:36;11.10;99.90
18291;DHT22;9271;48.590;8.866;2024-03-23T02:21:04;10.90;99.90
18291;DHT22;9271;48.590;8.866;2024-03-23T02:23:31;10.90;99.90
18291;DHT22;9271;48.590;8.866;2024-03-23T02:25:58;10.90;99.90
18291;DHT22;9271;48.590;8.866;2024-03-23T02:28:23;10.90;99.90
18291;DHT22;9271;48.590;8.866;2024-03-23T02:30:50;10.90;99.90
18291;DHT22;9271;48.590;8.866;2024-03-23T02:33:16;10.90;99.90
18291;DHT22;9271;48.590;8.866;2024-03-23T02:35:43;10.90;99.90
18291;DHT22;9271;48.590;8.866;2024-03-23T02:38:09;10.60;99.90
18291;DHT22;9271;48.590;8.866;2024-03-23T02:40:37;10.70;99.90
18291;DHT22;9271;48.590;8.866;2024-03-23T02:43:04;10.80;99.90
18291;DHT22;9271;48.590;8.866;2024-03-23T02:45:30;10.90;99.90
18291;DHT22;9271;48.590;8.866;2024-03-23T02:47:56;11.10;99.90
18291;DHT22;9271;48.590;8.866;2024-03-23T02:50:22;10.90;99.90
18291;DHT22;9271;48.590;8.866;2024-03-23T02:52:49;10.80;99.90
18291;DHT22;9271;48.590;8.866;2024-03-23T02:55:15;10.80;99.90
18291;DHT22;9271;48.590;8.866;2024-03-23T02:57:43;10.90;99.90
18291;DHT22;9271;48.590;8.866;2024-03-23T03:00:09;11.00;99.90
18291;DHT22;9271;48.590;8.866;2024-03-23T03:02:36;11.20;99.90
18291;DHT22;9271;48.590;8.866;2024-03-23T03:05:03;11.30;99.90
18291;DHT22;9271;48.590;8.866;2024-03-23T03:07:30;11.30;99.90
18291;DHT22;9271;48.590;8.866;2024-03-23T03:09:56;11.10;99.90
18291;DHT22;9271;48.590;8.866;2024-03-23T03:12:22;11.20;99.90
18291;DHT22;9271;48.590;8.866;2024-03-23T03:14:50;11.20;99.90
18291;DHT22;9271;48.590;8.866;2024-03-23T03:17:16;11.00;99.90
18291;DHT22;9271;48.590;8.866;2024-03-23T03:19:42;11.00;99.90
18291;DHT22;9271;48.590;8.866;2024-03-23T03:22:08;11.00;99.90
18291;DHT22;9271;48.590;8.866;2024-03-23T03:24:34;11.10;99.90
18291;DHT22;9271;48.590;8.866;2024-03-23T03:27:01;11.00;99.90
18291;DHT22;9271;48.590;8.866;2024-03-23T03:29:28;10.90;99.90
18291;DHT22;9271;48.590;8.866;2024-03-23T03:32:02;10.80;99.90
18291;DHT22;9271;48.590;8.866;2024-03-23T03:34:28;10.70;99.90
18291;DHT22;9271;48.590;8.866;2024-03-23T03:36:54;10.60;99.90
18291;DHT22;9271;48.590;8.866;2024-03-23T03:39:20;10.60;99.90
18291;DHT22;9271;48.590;8.866;2024-03-23T03:41:48;10.60;99.90
18291;DHT22;9271;48.590;8.866;2024-03-23T03:44:13;10.70;99.90
18291;DHT22;9271;48.590;8.866;2024-03-23T03:46:40;10.70;99.90
18291;DHT22;9271;48.590;8.866;2024-03-23T03:49:07;10.80;99.90
18291;DHT22;9271;48.590;8.866;2024-03-23T03:51:34;10.80;99.90
18291;DHT22;9271;48.590;8.866;2024-03-23T03:54:00;10.70;99.90
18291;DHT22;9271;48.590;8.866;2024-03-23T03:56:26;10.60;99.90
18291;DHT22;9271;48.590;8.866;2024-03-23T03:58:53;10.60;99.90
18291;DHT22;9271;48.590;8.866;2024-03-23T04:01:19;10.50;99.90
18291;DHT22;9271;48.590;8.866;2024-03-23T04:03:45;10.50;99.90
18291;DHT22;9271;48.590;8.866;2024-03-23T04:06:18;10.60;99.90
18291;DHT22;9271;48.590;8.866;2024-03-23T04:08:44;10.50;99.90
18291;DHT22;9271;48.590;8.866;2024-03-23T04:11:11;10.50;99.90
18291;DHT22;9271;48.590;8.866;2024-03-23T04:13:36;10.50;99.90
18291;DHT22;9271;48.590;8.866;2024-03-23T04:16:04;10.40;99.90
18291;DHT22;9271;48.590;8.866;2024-03-23T04:18:29;10.40;99.90
18291;DHT22;9271;48.590;8.866;2024-03-23T04:20:57;10.40;99.90
18291;DHT22;9271;48.590;8.866;2024-03-23T04:23:24;10.30;99.90
18291;DHT22;9271;48.590;8.866;2024-03-23T04:25:50;10.30;99.90
18291;DHT22;9271;48.590;8.866;2024-03-23T04:28:17;10.30;99.90
18291;DHT22;9271;48.590;8.866;2024-03-23T04:30:44;10.20;99.90
18291;DHT22;9271;48.590;8.866;2024-03-23T04:33:09;10.20;99.90
18291;DHT22;9271;48.590;8.866;2024-03-23T04:35:36;10.30;99.90
18291;DHT22;9271;48.590;8.866;2024-03-23T04:38:02;10.20;99.90
18291;DHT22;9271;48.590;8.866;2024-03-23T04:40:30;10.40;99.90
18291;DHT22;9271;48.590;8.866;2024-03-23T04:42:56;10.60;99.90
18291;DHT22;9271;48.590;8.866;2024-03-23T04:45:23;10.40;99.90
18291;DHT22;9271;48.590;8.866;2024-03-23T04:47:50;10.30;99.90
18291;DHT22;9271;48.590;8.866;2024-03-23T04:50:16;10.20;99.90
18291;DHT22;9271;48.590;8.866;2024-03-23T04:52:44;10.50;99.90
18291;DHT22;9271;48.590;8.866;2024-03-23T04:55:10;10.80;99.90
18291;DHT22;9271;48.590;8.866;2024-03-23T04:57:38;11.10;99.90
18291;DHT22;9271;48.590;8.866;2024-03-23T05:00:08;11.30;99.90
18291;DHT22;9271;48.590;8.866;2024-03-23T05:02:42;11.40;99.90
18291;DHT22;9271;48.590;8.866;2024-03-23T05:05:09;11.30;99.90
18291;DHT22;9271;48.590;8.866;2024-03-23T05:07:35;11.40;99.90
18291;DHT22;9271;48.590;8.866;2024-03-23T05:10:01;11.50;99.90
18291;DHT22;9271;48.590;8.866;2024-03-23T05:12:27;11.50;99.90
18291;DHT22;9271;48.590;8.866;2024-03-23T05:14:55;11.50;99.90
18291;DHT22;9271;48.590;8.866;2024-03-23T05:17:21;11.60;99.90
18291;DHT22;9271;48.590;8.866;2024-03-23T05:19:47;11.70;99.90
18291;DHT22;9271;48.590;8.866;2024-03-23T05:22:13;11.50;99.90
18291;DHT22;9271;48.590;8.866;2024-03-23T05:24:40;11.30;99.90
18291;DHT22;9271;48.590;8.866;2024-03-23T05:27:05;11.30;99.90
18291;DHT22;9271;48.590;8.866;2024-03-23T05:29:32;11.10;99.90
18291;DHT22;9271;48.590;8.866;2024-03-23T05:31:59;11.10;99.90
18291;DHT22;9271;48.590;8.866;2024-03-23T05:34:26;11.10;99.90
18291;DHT22;9271;48.590;8.866;2024-03-23T05:36:51;11.20;99.90
18291;DHT22;9271;48.590;8.866;2024-03-23T05:39:18;11.10;99.90
18291;DHT22;9271;48.590;8.866;2024-03-23T05:41:47;11.20;99.90
18291;DHT22;9271;48.590;8.866;2024-03-23T05:44:14;11.20;99.90
18291;DHT22;9271;48.590;8.866;2024-03-23T05:46:40;10.90;99.90
18291;DHT22;9271;48.590;8.866;2024-03-23T05:49:08;11.00;99.90
18291;DHT22;9271;48.590;8.866;2024-03-23T05:51:35;10.90;99.90
18291;DHT22;9271;48.590;8.866;2024-03-23T05:54:01;10.90;99.90
18291;DHT22;9271;48.590;8.866;2024-03-23T05:56:27;10.90;99.90
18291;DHT22;9271;48.590;8.866;2024-03-23T05:58:53;10.90;99.90
18291;DHT22;9271;48.590;8.866;2024-03-23T06:01:20;10.70;99.90
18291;DHT22;9271;48.590;8.866;2024-03-23T06:03:46;10.70;99.90
18291;DHT22;9271;48.590;8.866;2024-03-23T06:06:13;10.50;99.90
18291;DHT22;9271;48.590;8.866;2024-03-23T06:08:39;10.50;99.90
18291;DHT22;9271;48.590;8.866;2024-03-23T06:11:06;10.40;99.90
18291;DHT22;9271;48.590;8.866;2024-03-23T06:13:32;10.10;99.90
18291;DHT22;9271;48.590;8.866;2024-03-23T06:15:59;9.80;99.90
18291;DHT22;9271;48.590;8.866;2024-03-23T06:18:25;9.80;99.90
18291;DHT22;9271;48.590;8.866;2024-03-23T06:20:51;9.70;99.90
18291;DHT22;9271;48.590;8.866;2024-03-23T06:23:18;9.80;99.90
18291;DHT22;9271;48.590;8.866;2024-03-23T06:25:45;9.80;99.90
18291;DHT22;9271;48.590;8.866;2024-03-23T06:28:11;9.90;99.90
18291;DHT22;9271;48.590;8.866;2024-03-23T06:30:38;9.90;99.90
18291;DHT22;9271;48.590;8.866;2024-03-23T06:33:04;10.00;99.90
18291;DHT22;9271;48.590;8.866;2024-03-23T06:35:31;10.10;99.90
18291;DHT22;9271;48.590;8.866;2024-03-23T06:37:57;10.10;99.90
18291;DHT22;9271;48.590;8.866;2024-03-23T06:40:25;10.10;99.90
18291;DHT22;9271;48.590;8.866;2024-03-23T06:42:51;10.20;99.90
18291;DHT22;9271;48.590;8.866;2024-03-23T06:45:18;10.10;99.90
18291;DHT22;9271;48.590;8.866;2024-03-23T06:47:48;10.20;99.90
18291;DHT22;9271;48.590;8.866;2024-03-23T06:50:15;10.40;99.90
18291;DHT22;9271;48.590;8.866;2024-03-23T06:52:40;10.60;99.90
18291;DHT22;9271;48.590;8.866;2024-03-23T06:55:07;10.70;99.90
18291;DHT22;9271;48.590;8.866;2024-03-23T06:57:35;10.70;99.90
18291;DHT22;9271;48.590;8.866;2024-03-23T07:00:02;10.40;99.90
18291;DHT22;9271;48.590;8.866;2024-03-23T07:02:28;10.40;99.90
18291;DHT22;9271;48.590;8.866;2024-03-23T07:04:54;10.50;99.90
18291;DHT22;9271;48.590;8.866;2024-03-23T07:07:21;10.60;99.90
18291;DHT22;9271;48.590;8.866;2024-03-23T07:09:48;11.10;99.90
18291;DHT22;9271;48.590;8.866;2024-03-23T07:12:14;11.60;99.90
18291;DHT22;9271;48.590;8.866;2024-03-23T07:14:42;12.30;99.90
18291;DHT22;9271;48.590;8.866;2024-03-23T07:17:07;12.90;99.90
18291;DHT22;9271;48.590;8.866;2024-03-23T07:19:34;13.60;99.90
18291;DHT22;9271;48.590;8.866;2024-03-23T07:21:59;13.40;99.90
18291;DHT22;9271;48.590;8.866;2024-03-23T07:24:26;13.20;99.90
18291;DHT22;9271;48.590;8.866;2024-03-23T07:26:53;13.10;99.90
18291;DHT22;9271;48.590;8.866;2024-03-23T07:29:19;12.70;99.90
18291;DHT22;9271;48.590;8.866;2024-03-23T07:31:47;13.10;99.90
18291;DHT22;9271;48.590;8.866;2024-03-23T07:34:13;13.70;99.90
18291;DHT22;9271;48.590;8.866;2024-03-23T07:36:40;14.40;99.90
18291;DHT22;9271;48.590;8.866;2024-03-23T07:39:05;14.20;99.90
18291;DHT22;9271;48.590;8.866;2024-03-23T07:41:33;13.90;99.90
18291;DHT22;9271;48.590;8.866;2024-03-23T07:43:59;13.30;99.90
18291;DHT22;9271;48.590;8.866;2024-03-23T07:46:25;12.40;99.90
18291;DHT22;9271;48.590;8.866;2024-03-23T07:48:52;11.80;99.90
18291;DHT22;9271;48.590;8.866;2024-03-23T07:51:21;11.60;99.90
18291;DHT22;9271;48.590;8.866;2024-03-23T07:53:47;11.70;99.90
18291;DHT22;9271;48.590;8.866;2024-03-23T07:56:15;11.00;99.90
18291;DHT22;9271;48.590;8.866;2024-03-23T07:58:41;10.60;99.90
18291;DHT22;9271;48.590;8.866;2024-03-23T08:01:09;10.80;99.90
18291;DHT22;9271;48.590;8.866;2024-03-23T08:03:36;10.70;99.90
18291;DHT22;9271;48.590;8.866;2024-03-23T08:06:08;10.70;99.90
18291;DHT22;9271;48.590;8.866;2024-03-23T08:08:34;10.70;99.90
18291;DHT22;9271;48.590;8.866;2024-03-23T08:11:01;10.70;99.90
18291;DHT22;9271;48.590;8.866;2024-03-23T08:13:27;10.40;99.90
18291;DHT22;9271;48.590;8.866;2024-03-23T08:15:56;10.50;99.90
18291;DHT22;9271;48.590;8.866;2024-03-23T08:18:22;10.00;99.90
18291;DHT22;9271;48.590;8.866;2024-03-23T08:20:55;10.20;99.90
18291;DHT22;9271;48.590;8.866;2024-03-23T08:23:23;10.50;99.90
18291;DHT22;9271;48.590;8.866;2024-03-23T08:25:49;11.00;99.90
18291;DHT22;9271;48.590;8.866;2024-03-23T08:28:15;11.70;99.90
18291;DHT22;9271;48.590;8.866;2024-03-23T08:30:42;13.50;99.50
18291;DHT22;9271;48.590;8.866;2024-03-23T08:33:08;15.20;97.40
18291;DHT22;9271;48.590;8.866;2024-03-23T08:35:34;14.80;95.20
18291;DHT22;9271;48.590;8.866;2024-03-23T08:38:00;13.30;96.70
18291;DHT22;9271;48.590;8.866;2024-03-23T08:40:28;12.60;98.30
18291;DHT22;9271;48.590;8.866;2024-03-23T08:42:54;13.00;98.60
18291;DHT22;9271;48.590;8.866;2024-03-23T08:45:21;13.90;96.10
18291;DHT22;9271;48.590;8.866;2024-03-23T08:47:46;13.70;96.60
18291;DHT22;9271;48.590;8.866;2024-03-23T08:50:13;14.60;95.00
18291;DHT22;9271;48.590;8.866;2024-03-23T08:52:39;13.50;95.30
18291;DHT22;9271;48.590;8.866;2024-03-23T08:55:06;13.40;95.50
18291;DHT22;9271;48.590;8.866;2024-03-23T08:57:33;12.50;96.70
18291;DHT22;9271;48.590;8.866;2024-03-23T09:00:00;12.10;97.20
18291;DHT22;9271;48.590;8.866;2024-03-23T09:02:25;11.80;96.60
18291;DHT22;9271;48.590;8.866;2024-03-23T09:04:52;10.90;98.50
18291;DHT22;9271;48.590;8.866;2024-03-23T09:07:17;10.70;99.10
18291;DHT22;9271;48.590;8.866;2024-03-23T09:09:44;10.90;98.50
18291;DHT22;9271;48.590;8.866;2024-03-23T09:12:10;10.90;98.10
18291;DHT22;9271;48.590;8.866;2024-03-23T09:14:38;12.20;97.80
18291;DHT22;9271;48.590;8.866;2024-03-23T09:17:03;13.30;94.60
18291;DHT22;9271;48.590;8.866;2024-03-23T09:19:30;13.60;93.10
18291;DHT22;9271;48.590;8.866;2024-03-23T09:21:56;14.70;91.60
18291;DHT22;9271;48.590;8.866;2024-03-23T09:24:23;13.20;91.90
18291;DHT22;9271;48.590;8.866;2024-03-23T09:26:48;12.30;94.70
18291;DHT22;9271;48.590;8.866;2024-03-23T09:29:15;11.90;94.80
18291;DHT22;9271;48.590;8.866;2024-03-23T09:31:42;12.20;95.40
18291;DHT22;9271;48.590;8.866;2024-03-23T09:34:09;11.10;97.00
18291;DHT22;9271;48.590;8.866;2024-03-23T09:36:34;10.30;99.90
18291;DHT22;9271;48.590;8.866;2024-03-23T09:39:01;9.90;99.90
18291;DHT22;9271;48.590;8.866;2024-03-23T09:41:29;9.60;99.90
18291;DHT22;9271;48.590;8.866;2024-03-23T09:43:55;9.60;99.90
18291;DHT22;9271;48.590;8.866;2024-03-23T09:46:21;9.40;99.90
18291;DHT22;9271;48.590;8.866;2024-03-23T09:48:49;9.70;99.90
18291;DHT22;9271;48.590;8.866;2024-03-23T09:51:15;10.50;99.90
18291;DHT22;9271;48.590;8.866;2024-03-23T09:53:42;11.20;99.90
18291;DHT22;9271;48.590;8.866;2024-03-23T09:56:07;11.60;99.90
18291;DHT22;9271;48.590;8.866;2024-03-23T09:58:36;11.50;99.30
18291;DHT22;9271;48.590;8.866;2024-03-23T10:01:02;11.10;99.90
18291;DHT22;9271;48.590;8.866;2024-03-23T10:03:30;11.20;98.60
18291;DHT22;9271;48.590;8.866;2024-03-23T10:06:04;12.80;98.80
18291;DHT22;9271;48.590;8.866;2024-03-23T10:08:31;16.50;93.40
18291;DHT22;9271;48.590;8.866;2024-03-23T10:10:56;19.10;88.70
18291;DHT22;9271;48.590;8.866;2024-03-23T10:13:24;22.80;73.40
18291;DHT22;9271;48.590;8.866;2024-03-23T10:15:55;23.90;64.60
18291;DHT22;9271;48.590;8.866;2024-03-23T10:18:23;26.00;60.40
18291;DHT22;9271;48.590;8.866;2024-03-23T10:20:51;26.90;51.80
18291;DHT22;9271;48.590;8.866;2024-03-23T10:23:20;26.90;49.30
18291;DHT22;9271;48.590;8.866;2024-03-23T10:25:48;24.40;48.90
18291;DHT22;9271;48.590;8.866;2024-03-23T10:28:14;20.30;53.40
18291;DHT22;9271;48.590;8.866;2024-03-23T10:30:40;16.90;60.90
18291;DHT22;9271;48.590;8.866;2024-03-23T10:33:08;15.50;65.90
18291;DHT22;9271;48.590;8.866;2024-03-23T10:35:34;14.10;70.70
18291;DHT22;9271;48.590;8.866;2024-03-23T10:38:01;12.40;79.70
18291;DHT22;9271;48.590;8.866;2024-03-23T10:40:29;11.40;90.30
18291;DHT22;9271;48.590;8.866;2024-03-23T10:42:58;10.10;99.50
18291;DHT22;9271;48.590;8.866;2024-03-23T10:45:24;8.80;99.90
18291;DHT22;9271;48.590;8.866;2024-03-23T10:47:51;8.40;99.90
18291;DHT22;9271;48.590;8.866;2024-03-23T10:50:17;9.70;99.90
18291;DHT22;9271;48.590;8.866;2024-03-23T10:52:46;12.10;99.90
18291;DHT22;9271;48.590;8.866;2024-03-23T10:55:15;14.30;97.30
18291;DHT22;9271;48.590;8.866;2024-03-23T10:57:45;16.10;94.20
18291;DHT22;9271;48.590;8.866;2024-03-23T11:00:14;18.20;91.10
18291;DHT22;9271;48.590;8.866;2024-03-23T11:02:42;18.90;85.10
18291;DHT22;9271;48.590;8.866;2024-03-23T11:05:28;18.60;81.70
18291;DHT22;9271;48.590;8.866;2024-03-23T11:07:55;17.10;84.50
18291;DHT22;9271;48.590;8.866;2024-03-23T11:10:25;16.10;84.20
18291;DHT22;9271;48.590;8.866;2024-03-23T11:12:54;14.60;84.20
18291;DHT22;9271;48.590;8.866;2024-03-23T11:15:20;14.30;88.50
18291;DHT22;9271;48.590;8.866;2024-03-23T11:18:02;15.10;87.10
18291;DHT22;9271;48.590;8.866;2024-03-23T11:20:31;16.10;82.00
18291;DHT22;9271;48.590;8.866;2024-03-23T11:22:58;15.70;81.70
18291;DHT22;9271;48.590;8.866;2024-03-23T11:25:25;15.10;84.70
18291;DHT22;9271;48.590;8.866;2024-03-23T11:27:54;15.00;84.90
18291;DHT22;9271;48.590;8.866;2024-03-23T11:30:21;14.50;84.80
18291;DHT22;9271;48.590;8.866;2024-03-23T11:32:50;13.80;85.00
18291;DHT22;9271;48.590;8.866;2024-03-23T11:35:26;12.20;84.60
18291;DHT22;9271;48.590;8.866;2024-03-23T11:38:06;11.50;91.70
18291;DHT22;9271;48.590;8.866;2024-03-23T11:40:33;11.60;90.70
18291;DHT22;9271;48.590;8.866;2024-03-23T11:43:02;11.00;91.00
18291;DHT22;9271;48.590;8.866;2024-03-23T11:45:34;11.80;91.40
18291;DHT22;9271;48.590;8.866;2024-03-23T11:48:08;13.10;90.10
18291;DHT22;9271;48.590;8.866;2024-03-23T11:50:37;14.30;83.40
18291;DHT22;9271;48.590;8.866;2024-03-23T11:53:07;15.80;80.30
18291;DHT22;9271;48.590;8.866;2024-03-23T11:55:47;16.80;75.60
18291;DHT22;9271;48.590;8.866;2024-03-23T11:58:15;15.40;74.40
18291;DHT22;9271;48.590;8.866;2024-03-23T12:00:49;14.10;79.00
18291;DHT22;9271;48.590;8.866;2024-03-23T12:03:16;15.00;77.90
18291;DHT22;9271;48.590;8.866;2024-03-23T12:05:48;14.50;77.00
18291;DHT22;9271;48.590;8.866;2024-03-23T12:08:19;13.10;80.50
18291;DHT22;9271;48.590;8.866;2024-03-23T12:10:48;12.70;84.70
18291;DHT22;9271;48.590;8.866;2024-03-23T12:13:17;12.50;85.20
18291;DHT22;9271;48.590;8.866;2024-03-23T12:15:44;11.70;87.20
18291;DHT22;9271;48.590;8.866;2024-03-23T12:18:10;11.30;89.30
18291;DHT22;9271;48.590;8.866;2024-03-23T12:20:37;10.80;91.10
18291;DHT22;9271;48.590;8.866;2024-03-23T12:23:08;10.80;92.00
18291;DHT22;9271;48.590;8.866;2024-03-23T12:25:35;10.90;91.20
18291;DHT22;9271;48.590;8.866;2024-03-23T12:28:01;11.80;91.30
18291;DHT22;9271;48.590;8.866;2024-03-23T12:30:30;14.10;84.60
18291;DHT22;9271;48.590;8.866;2024-03-23T12:32:55;16.00;77.70
18291;DHT22;9271;48.590;8.866;2024-03-23T12:35:22;15.00;75.90
18291;DHT22;9271;48.590;8.866;2024-03-23T12:37:48;13.90;79.70
18291;DHT22;9271;48.590;8.866;2024-03-23T12:40:14;14.00;81.20
18291;DHT22;9271;48.590;8.866;2024-03-23T12:42:40;13.60;82.40
18291;DHT22;9271;48.590;8.866;2024-03-23T12:45:07;13.40;83.30
18291;DHT22;9271;48.590;8.866;2024-03-23T12:47:35;13.40;82.90
18291;DHT22;9271;48.590;8.866;2024-03-23T12:50:01;12.00;85.60
18291;DHT22;9271;48.590;8.866;2024-03-23T12:52:27;11.60;88.50
18291;DHT22;9271;48.590;8.866;2024-03-23T12:54:55;11.60;87.00
18291;DHT22;9271;48.590;8.866;2024-03-23T12:57:22;11.20;87.80
18291;DHT22;9271;48.590;8.866;2024-03-23T12:59:49;12.70;84.30
18291;DHT22;9271;48.590;8.866;2024-03-23T13:02:17;11.30;93.10
18291;DHT22;9271;48.590;8.866;2024-03-23T13:04:46;9.50;95.60
18291;DHT22;9271;48.590;8.866;2024-03-23T13:07:12;8.40;97.20
18291;DHT22;9271;48.590;8.866;2024-03-23T13:09:39;8.80;99.90
18291;DHT22;9271;48.590;8.866;2024-03-23T13:12:05;10.10;99.90
18291;DHT22;9271;48.590;8.866;2024-03-23T13:14:32;11.00;99.50
18291;DHT22;9271;48.590;8.866;2024-03-23T13:16:57;12.60;96.70
18291;DHT22;9271;48.590;8.866;2024-03-23T13:19:24;14.30;93.20
18291;DHT22;9271;48.590;8.866;2024-03-23T13:21:53;15.60;90.20
18291;DHT22;9271;48.590;8.866;2024-03-23T13:24:25;16.90;89.90
18291;DHT22;9271;48.590;8.866;2024-03-23T13:26:51;18.50;79.70
18291;DHT22;9271;48.590;8.866;2024-03-23T13:29:18;20.10;70.50
18291;DHT22;9271;48.590;8.866;2024-03-23T13:31:44;19.90;68.00
18291;DHT22;9271;48.590;8.866;2024-03-23T13:34:10;17.30;70.30
18291;DHT22;9271;48.590;8.866;2024-03-23T13:36:36;13.50;78.20
18291;DHT22;9271;48.590;8.866;2024-03-23T13:39:04;11.40;89.40
18291;DHT22;9271;48.590;8.866;2024-03-23T13:41:37;11.00;92.00
18291;DHT22;9271;48.590;8.866;2024-03-23T13:44:03;11.00;91.60
18291;DHT22;9271;48.590;8.866;2024-03-23T13:46:30;11.80;88.10
18291;DHT22;9271;48.590;8.866;2024-03-23T13:48:56;10.60;90.50
18291;DHT22;9271;48.590;8.866;2024-03-23T13:51:23;9.90;92.40
18291;DHT22;9271;48.590;8.866;2024-03-23T13:53:50;9.20;93.00
18291;DHT22;9271;48.590;8.866;2024-03-23T13:56:18;9.00;93.70
18291;DHT22;9271;48.590;8.866;2024-03-23T13:58:44;9.40;94.40
18291;DHT22;9271;48.590;8.866;2024-03-23T14:01:13;9.40;95.10
18291;DHT22;9271;48.590;8.866;2024-03-23T14:03:39;9.00;97.10
18291;DHT22;9271;48.590;8.866;2024-03-23T14:06:06;9.40;99.90
18291;DHT22;9271;48.590;8.866;2024-03-23T14:08:33;10.90;99.90
18291;DHT22;9271;48.590;8.866;2024-03-23T14:11:01;11.20;98.70
18291;DHT22;9271;48.590;8.866;2024-03-23T14:13:29;11.90;98.90
18291;DHT22;9271;48.590;8.866;2024-03-23T14:15:55;12.10;99.00
18291;DHT22;9271;48.590;8.866;2024-03-23T14:18:21;14.00;95.80
18291;DHT22;9271;48.590;8.866;2024-03-23T14:20:48;16.20;90.80
18291;DHT22;9271;48.590;8.866;2024-03-23T14:23:14;17.40;81.10
18291;DHT22;9271;48.590;8.866;2024-03-23T14:25:40;17.40;81.40
18291;DHT22;9271;48.590;8.866;2024-03-23T14:28:06;18.00;77.30
18291;DHT22;9271;48.590;8.866;2024-03-23T14:30:41;16.80;72.00
18291;DHT22;9271;48.590;8.866;2024-03-23T14:33:07;14.40;78.50
18291;DHT22;9271;48.590;8.866;2024-03-23T14:35:33;12.80;82.80
18291;DHT22;9271;48.590;8.866;2024-03-23T14:37:59;11.70;87.80
18291;DHT22;9271;48.590;8.866;2024-03-23T14:40:26;11.00;88.60
18291;DHT22;9271;48.590;8.866;2024-03-23T14:42:53;10.70;91.50
18291;DHT22;9271;48.590;8.866;2024-03-23T14:45:20;9.80;92.80
18291;DHT22;9271;48.590;8.866;2024-03-23T14:47:47;8.80;97.90
18291;DHT22;9271;48.590;8.866;2024-03-23T14:50:14;7.90;99.90
18291;DHT22;9271;48.590;8.866;2024-03-23T14:52:41;7.50;99.90
18291;DHT22;9271;48.590;8.866;2024-03-23T14:55:08;8.00;99.90
18291;DHT22;9271;48.590;8.866;2024-03-23T14:57:34;8.30;99.90
18291;DHT22;9271;48.590;8.866;2024-03-23T15:00:01;8.70;99.90
18291;DHT22;9271;48.590;8.866;2024-03-23T15:02:30;9.90;99.90
18291;DHT22;9271;48.590;8.866;2024-03-23T15:04:58;10.50;99.90
18291;DHT22;9271;48.590;8.866;2024-03-23T15:07:24;10.50;99.90
18291;DHT22;9271;48.590;8.866;2024-03-23T15:09:51;11.90;99.90
18291;DHT22;9271;48.590;8.866;2024-03-23T15:12:17;13.40;96.50
18291;DHT22;9271;48.590;8.866;2024-03-23T15:14:43;13.60;94.90
18291;DHT22;9271;48.590;8.866;2024-03-23T15:17:09;12.80;93.00
18291;DHT22;9271;48.590;8.866;2024-03-23T15:19:35;12.00;94.40
18291;DHT22;9271;48.590;8.866;2024-03-23T15:22:03;11.60;93.40
18291;DHT22;9271;48.590;8.866;2024-03-23T15:24:30;10.70;96.10
18291;DHT22;9271;48.590;8.866;2024-03-23T15:26:57;10.20;97.30
18291;DHT22;9271;48.590;8.866;2024-03-23T15:29:23;9.80;98.80
18291;DHT22;9271;48.590;8.866;2024-03-23T15:31:49;9.30;99.30
18291;DHT22;9271;48.590;8.866;2024-03-23T15:34:18;8.90;99.90
18291;DHT22;9271;48.590;8.866;2024-03-23T15:36:44;8.60;99.90
18291;DHT22;9271;48.590;8.866;2024-03-23T15:39:12;8.20;99.90
18291;DHT22;9271;48.590;8.866;2024-03-23T15:41:39;7.80;99.90
18291;DHT22;9271;48.590;8.866;2024-03-23T15:44:06;7.70;99.90
18291;DHT22;9271;48.590;8.866;2024-03-23T15:46:32;7.60;99.90
18291;DHT22;9271;48.590;8.866;2024-03-23T15:48:58;7.70;99.90
18291;DHT22;9271;48.590;8.866;2024-03-23T15:51:24;7.70;99.90
18291;DHT22;9271;48.590;8.866;2024-03-23T15:53:56;7.30;99.90
18291;DHT22;9271;48.590;8.866;2024-03-23T15:56:24;6.90;99.90
18291;DHT22;9271;48.590;8.866;2024-03-23T15:58:50;7.00;99.90
18291;DHT22;9271;48.590;8.866;2024-03-23T16:01:16;7.30;99.90
18291;DHT22;9271;48.590;8.866;2024-03-23T16:03:43;7.30;99.90
18291;DHT22;9271;48.590;8.866;2024-03-23T16:06:09;7.00;99.90
18291;DHT22;9271;48.590;8.866;2024-03-23T16:08:36;6.90;99.90
18291;DHT22;9271;48.590;8.866;2024-03-23T16:11:03;7.40;99.90
18291;DHT22;9271;48.590;8.866;2024-03-23T16:13:31;7.90;99.90
18291;DHT22;9271;48.590;8.866;2024-03-23T16:15:57;8.40;99.90
18291;DHT22;9271;48.590;8.866;2024-03-23T16:18:25;9.10;99.90
18291;DHT22;9271;48.590;8.866;2024-03-23T16:20:54;8.80;99.90
18291;DHT22;9271;48.590;8.866;2024-03-23T16:23:21;8.60;99.90
18291;DHT22;9271;48.590;8.866;2024-03-23T16:25:48;8.30;99.90
18291;DHT22;9271;48.590;8.866;2024-03-23T16:28:25;8.30;99.90
18291;DHT22;9271;48.590;8.866;2024-03-23T16:30:56;8.60;99.90
18291;DHT22;9271;48.590;8.866;2024-03-23T16:33:23;8.30;99.90
18291;DHT22;9271;48.590;8.866;2024-03-23T16:35:59;7.90;99.90
18291;DHT22;9271;48.590;8.866;2024-03-23T16:38:27;8.10;99.90
18291;DHT22;9271;48.590;8.866;2024-03-23T16:40:54;8.10;99.90
18291;DHT22;9271;48.590;8.866;2024-03-23T16:43:21;8.10;99.90